createdAt,value
2023-11-01T00:01:12.747Z,3.96
2023-11-01T00:03:39.391Z,4.04
2023-11-01T00:06:07.020Z,4.10
2023-11-01T00:08:33.481Z,4.15
2023-11-01T00:10:59.916Z,4.15
2023-11-01T00:13:28.136Z,4.20
2023-11-01T00:18:38.652Z,4.24
2023-11-01T00:21:05.627Z,4.17
2023-11-01T00:23:32.112Z,4.25
2023-11-01T00:25:58.683Z,4.30
2023-11-01T00:28:25.040Z,4.28
2023-11-01T00:30:51.593Z,4.30
2023-11-01T00:33:18.032Z,4.36
2023-11-01T00:35:44.716Z,4.40
2023-11-01T00:38:11.582Z,4.45
2023-11-01T00:40:38.024Z,4.46
2023-11-01T00:43:05.393Z,4.53
2023-11-01T00:45:32.186Z,4.56
2023-11-01T00:47:58.569Z,4.51
2023-11-01T00:50:25.011Z,4.46
2023-11-01T00:52:51.582Z,4.40
2023-11-01T00:55:18.363Z,4.45
2023-11-01T00:57:47.740Z,4.59
2023-11-01T01:00:14.708Z,4.56
2023-11-01T01:02:41.209Z,4.44
2023-11-01T01:05:08.122Z,4.50
2023-11-01T01:07:34.770Z,4.51
2023-11-01T01:10:13.900Z,4.57
2023-11-01T01:12:40.227Z,4.71
2023-11-01T01:15:06.926Z,4.62
2023-11-01T01:17:33.402Z,4.72
2023-11-01T01:20:00.075Z,4.75
2023-11-01T01:22:26.797Z,4.56
2023-11-01T01:24:53.130Z,4.59
2023-11-01T01:27:19.582Z,4.66
2023-11-01T01:29:46.008Z,4.64
2023-11-01T01:32:12.409Z,4.75
2023-11-01T01:34:38.730Z,4.76
2023-11-01T01:37:05.125Z,4.71
2023-11-01T01:39:31.669Z,4.71
2023-11-01T01:41:58.005Z,4.79
2023-11-01T01:44:25.493Z,4.86
2023-11-01T01:46:52.225Z,4.90
2023-11-01T01:49:18.601Z,4.80
2023-11-01T01:51:45.215Z,4.85
2023-11-01T01:54:11.747Z,4.91
2023-11-01T01:56:38.494Z,4.84
2023-11-01T01:59:05.555Z,4.87
2023-11-01T02:01:39.342Z,4.98
2023-11-01T02:04:11.910Z,4.88
2023-11-01T02:06:38.499Z,4.89
2023-11-01T02:09:06.986Z,4.80
2023-11-01T02:11:36.365Z,4.88
2023-11-01T02:14:03.017Z,4.93
2023-11-01T02:16:29.416Z,4.91
2023-11-01T02:18:55.763Z,4.98
2023-11-01T02:21:22.279Z,4.95
2023-11-01T02:23:50.635Z,4.92
2023-11-01T02:26:16.952Z,4.98
2023-11-01T02:28:43.281Z,4.95
2023-11-01T02:31:10.108Z,4.99
2023-11-01T02:33:36.478Z,4.99
2023-11-01T02:36:03.532Z,5.00
2023-11-01T02:38:30.220Z,4.96
2023-11-01T02:40:56.617Z,4.90
2023-11-01T02:43:22.981Z,4.92
2023-11-01T02:45:49.626Z,4.94
2023-11-01T02:48:16.014Z,4.97
2023-11-01T02:50:42.399Z,5.09
2023-11-01T02:53:09.011Z,5.10
2023-11-01T02:55:35.398Z,5.05
2023-11-01T02:58:03.464Z,5.13
2023-11-01T03:00:30.259Z,5.06
2023-11-01T03:02:58.519Z,5.09
2023-11-01T03:05:29.523Z,4.86
2023-11-01T03:07:57.552Z,4.88
2023-11-01T03:10:24.942Z,4.91
2023-11-01T03:12:51.445Z,4.90
2023-11-01T03:15:18.050Z,4.87
2023-11-01T03:17:44.832Z,4.84
2023-11-01T03:20:14.298Z,4.84
2023-11-01T03:22:40.740Z,4.78
2023-11-01T03:25:07.652Z,4.62
2023-11-01T03:27:34.076Z,4.74
2023-11-01T03:30:01.901Z,4.72
2023-11-01T03:32:28.427Z,4.80
2023-11-01T03:34:54.955Z,4.83
2023-11-01T03:37:21.409Z,4.84
2023-11-01T03:39:47.791Z,4.86
2023-11-01T03:42:14.609Z,4.88
2023-11-01T03:44:40.989Z,4.93
2023-11-01T03:47:07.444Z,4.94
2023-11-01T03:49:34.190Z,4.94
2023-11-01T03:52:04.570Z,4.96
2023-11-01T03:54:34.914Z,4.88
2023-11-01T03:57:03.610Z,4.89
2023-11-01T03:59:30.947Z,4.90
2023-11-01T04:01:57.585Z,4.88
2023-11-01T04:04:24.031Z,4.92
2023-11-01T04:06:50.360Z,4.87
2023-11-01T04:09:16.790Z,4.94
2023-11-01T04:11:43.442Z,4.94
2023-11-01T04:14:10.061Z,4.81
2023-11-01T04:16:36.408Z,4.88
2023-11-01T04:19:03.647Z,4.89
2023-11-01T04:21:30.589Z,4.89
2023-11-01T04:23:57.000Z,4.88
2023-11-01T04:26:23.638Z,4.90
2023-11-01T04:28:50.070Z,4.96
2023-11-01T04:31:17.074Z,4.87
2023-11-01T04:33:44.597Z,4.89
2023-11-01T04:36:11.562Z,4.92
2023-11-01T04:38:39.140Z,4.89
2023-11-01T04:41:10.945Z,4.86
2023-11-01T04:43:38.260Z,4.96
2023-11-01T04:46:06.301Z,4.91
2023-11-01T04:48:32.881Z,4.94
2023-11-01T04:51:00.642Z,4.95
2023-11-01T04:53:28.827Z,4.85
2023-11-01T04:55:55.807Z,4.90
2023-11-01T04:58:23.432Z,4.82
2023-11-01T05:00:53.206Z,4.79
2023-11-01T05:03:19.953Z,4.80
2023-11-01T05:05:46.760Z,4.77
2023-11-01T05:08:13.456Z,4.84
2023-11-01T05:10:40.001Z,4.84
2023-11-01T05:13:06.839Z,4.84
2023-11-01T05:15:35.295Z,4.80
2023-11-01T05:18:02.119Z,4.78
2023-11-01T05:20:29.998Z,4.84
2023-11-01T05:22:56.386Z,4.83
2023-11-01T05:25:23.137Z,4.80
2023-11-01T05:27:49.494Z,4.85
2023-11-01T05:30:16.084Z,4.88
2023-11-01T05:32:46.172Z,4.83
2023-11-01T05:35:14.171Z,4.78
2023-11-01T05:37:41.309Z,4.78
2023-11-01T05:40:14.585Z,4.71
2023-11-01T05:42:42.767Z,4.71
2023-11-01T05:45:09.753Z,4.67
2023-11-01T05:47:36.762Z,4.75
2023-11-01T05:50:09.197Z,4.83
2023-11-01T05:52:35.997Z,4.71
2023-11-01T05:55:10.857Z,4.68
2023-11-01T05:57:40.898Z,4.74
2023-11-01T06:00:10.604Z,4.80
2023-11-01T06:02:40.624Z,4.79
2023-11-01T06:05:07.698Z,4.75
2023-11-01T06:07:34.130Z,4.79
2023-11-01T06:10:00.546Z,4.90
2023-11-01T06:12:26.873Z,4.83
2023-11-01T06:14:53.571Z,4.78
2023-11-01T06:17:20.364Z,4.78
2023-11-01T06:19:47.342Z,4.68
2023-11-01T06:22:13.968Z,4.69
2023-11-01T06:24:40.289Z,4.68
2023-11-01T06:27:06.934Z,4.76
2023-11-01T06:29:33.313Z,4.75
2023-11-01T06:32:00.304Z,4.76
2023-11-01T06:34:26.692Z,4.80
2023-11-01T06:36:53.021Z,4.79
2023-11-01T06:39:19.429Z,4.83
2023-11-01T06:41:46.085Z,4.81
2023-11-01T06:44:14.404Z,4.85
2023-11-01T06:46:41.104Z,4.76
2023-11-01T06:49:07.528Z,4.75
2023-11-01T06:51:33.914Z,4.72
2023-11-01T06:54:01.156Z,4.80
2023-11-01T06:56:27.658Z,4.85
2023-11-01T06:58:54.307Z,4.76
2023-11-01T07:01:21.045Z,4.66
2023-11-01T07:03:47.475Z,4.75
2023-11-01T07:06:15.787Z,4.81
2023-11-01T07:08:44.007Z,4.77
2023-11-01T07:11:11.658Z,4.74
2023-11-01T07:13:38.065Z,4.67
2023-11-01T07:16:05.554Z,4.80
2023-11-01T07:18:32.754Z,4.85
2023-11-01T07:20:59.307Z,4.84
2023-11-01T07:23:25.970Z,4.91
2023-11-01T07:25:52.671Z,4.93
2023-11-01T07:28:19.008Z,4.90
2023-11-01T07:30:45.404Z,4.83
2023-11-01T07:33:13.362Z,4.88
2023-11-01T07:35:39.973Z,4.93
2023-11-01T07:38:06.350Z,4.97
2023-11-01T07:40:32.840Z,5.01
2023-11-01T07:42:59.281Z,4.92
2023-11-01T07:45:25.653Z,4.87
2023-11-01T07:47:52.255Z,4.97
2023-11-01T07:50:18.859Z,4.99
2023-11-01T07:52:45.321Z,4.89
2023-11-01T07:55:12.088Z,4.92
2023-11-01T07:57:38.436Z,4.94
2023-11-01T08:00:07.002Z,5.12
2023-11-01T08:02:33.685Z,5.07
2023-11-01T08:05:01.734Z,5.14
2023-11-01T08:07:28.433Z,5.16
2023-11-01T08:09:54.804Z,5.02
2023-11-01T08:12:21.171Z,5.18
2023-11-01T08:14:47.756Z,5.24
2023-11-01T08:17:16.017Z,5.19
2023-11-01T08:19:42.413Z,5.09
2023-11-01T08:22:12.046Z,5.10
2023-11-01T08:24:39.702Z,5.23
2023-11-01T08:27:06.171Z,5.22
2023-11-01T08:29:34.322Z,5.29
2023-11-01T08:32:01.179Z,5.41
2023-11-01T08:34:27.584Z,5.42
2023-11-01T08:36:54.050Z,5.40
2023-11-01T08:39:20.389Z,5.31
2023-11-01T08:41:46.754Z,5.43
2023-11-01T08:44:13.254Z,5.53
2023-11-01T08:46:39.607Z,5.64
2023-11-01T08:49:06.233Z,5.80
2023-11-01T08:51:32.703Z,5.66
2023-11-01T08:54:02.307Z,5.77
2023-11-01T08:56:28.802Z,5.72
2023-11-01T08:58:55.334Z,5.88
2023-11-01T09:01:21.805Z,5.86
2023-11-01T09:03:48.291Z,6.03
2023-11-01T09:06:14.953Z,6.04
2023-11-01T09:08:41.587Z,6.10
2023-11-01T09:11:08.202Z,6.12
2023-11-01T09:13:34.796Z,6.09
2023-11-01T09:16:01.391Z,6.07
2023-11-01T09:18:27.937Z,6.26
2023-11-01T09:20:54.575Z,6.29
2023-11-01T09:23:21.479Z,6.45
2023-11-01T09:25:47.912Z,6.60
2023-11-01T09:28:14.893Z,6.60
2023-11-01T09:30:41.378Z,6.59
2023-11-01T09:33:08.483Z,6.61
2023-11-01T09:35:35.655Z,6.67
2023-11-01T09:38:02.059Z,6.73
2023-11-01T09:40:28.967Z,6.83
2023-11-01T09:42:56.581Z,6.84
2023-11-01T09:45:23.169Z,6.72
2023-11-01T09:47:51.357Z,6.78
2023-11-01T09:50:19.057Z,6.86
2023-11-01T09:52:45.423Z,6.98
2023-11-01T09:55:18.464Z,7.10
2023-11-01T09:57:45.217Z,7.01
2023-11-01T10:00:12.965Z,6.99
2023-11-01T10:02:40.776Z,7.09
2023-11-01T10:05:07.857Z,7.21
2023-11-01T10:07:34.519Z,7.17
2023-11-01T10:10:03.795Z,7.27
2023-11-01T10:12:30.181Z,7.33
2023-11-01T10:14:56.779Z,7.42
2023-11-01T10:17:23.249Z,7.54
2023-11-01T10:19:49.622Z,7.53
2023-11-01T10:22:16.036Z,7.80
2023-11-01T10:24:45.382Z,7.95
2023-11-01T10:27:11.926Z,8.04
2023-11-01T10:29:47.195Z,7.98
2023-11-01T10:32:14.884Z,8.06
2023-11-01T10:34:41.519Z,8.03
2023-11-01T10:37:09.848Z,8.07
2023-11-01T10:39:39.228Z,8.11
2023-11-01T10:42:08.707Z,8.25
2023-11-01T10:44:35.232Z,8.27
2023-11-01T10:47:02.324Z,8.41
2023-11-01T10:49:29.682Z,8.40
2023-11-01T10:52:00.302Z,8.52
2023-11-01T10:54:28.001Z,8.55
2023-11-01T10:56:54.915Z,8.69
2023-11-01T10:59:35.758Z,8.63
2023-11-01T11:02:18.456Z,8.60
2023-11-01T11:04:52.966Z,8.61
2023-11-01T11:07:24.789Z,8.66
2023-11-01T11:10:20.425Z,8.73
2023-11-01T11:13:07.105Z,8.73
2023-11-01T11:15:49.183Z,8.93
2023-11-01T11:18:18.959Z,8.96
2023-11-01T11:20:45.988Z,8.96
2023-11-01T11:23:15.807Z,9.11
2023-11-01T11:25:43.395Z,8.98
2023-11-01T11:28:11.203Z,9.13
2023-11-01T11:30:47.944Z,9.22
2023-11-01T11:33:16.164Z,9.23
2023-11-01T11:35:43.094Z,9.20
2023-11-01T11:38:30.714Z,9.20
2023-11-01T11:41:20.652Z,9.27
2023-11-01T11:44:07.866Z,9.23
2023-11-01T11:46:41.159Z,9.35
2023-11-01T11:49:08.909Z,9.26
2023-11-01T11:51:36.993Z,9.33
2023-11-01T11:54:11.260Z,9.42
2023-11-01T11:56:38.115Z,9.34
2023-11-01T11:59:05.017Z,9.39
2023-11-01T12:01:31.520Z,9.45
2023-11-01T12:03:59.621Z,9.41
2023-11-01T12:06:27.874Z,9.35
2023-11-01T12:08:54.485Z,9.40
2023-11-01T12:11:29.440Z,9.51
2023-11-01T12:13:55.964Z,9.51
2023-11-01T12:16:29.857Z,9.56
2023-11-01T12:19:18.026Z,9.57
2023-11-01T12:21:50.641Z,9.62
2023-11-01T12:24:18.956Z,9.61
2023-11-01T12:27:05.073Z,9.66
2023-11-01T12:29:35.004Z,9.66
2023-11-01T12:32:06.830Z,9.63
2023-11-01T12:34:34.808Z,9.64
2023-11-01T12:37:15.604Z,9.68
2023-11-01T12:39:59.391Z,9.56
2023-11-01T12:42:27.830Z,9.57
2023-11-01T12:44:55.712Z,9.65
2023-11-01T12:47:24.452Z,9.59
2023-11-01T12:49:53.040Z,9.65
2023-11-01T12:52:19.896Z,9.68
2023-11-01T12:54:46.952Z,9.64
2023-11-01T12:57:14.492Z,9.69
2023-11-01T12:59:44.401Z,9.75
2023-11-01T13:02:10.801Z,9.73
2023-11-01T13:04:38.226Z,9.76
2023-11-01T13:07:05.689Z,9.82
2023-11-01T13:09:33.142Z,9.78
2023-11-01T13:11:59.557Z,9.75
2023-11-01T13:14:25.954Z,9.80
2023-11-01T13:16:52.855Z,9.86
2023-11-01T13:19:19.402Z,9.86
2023-11-01T13:21:45.757Z,9.86
2023-11-01T13:24:12.216Z,9.85
2023-11-01T13:26:39.252Z,9.86
2023-11-01T13:29:05.798Z,9.82
2023-11-01T13:31:32.454Z,9.94
2023-11-01T13:33:58.990Z,9.92
2023-11-01T13:36:25.345Z,10.00
2023-11-01T13:38:52.796Z,10.01
2023-11-01T13:41:19.216Z,9.95
2023-11-01T13:43:45.799Z,10.02
2023-11-01T13:46:14.309Z,10.04
2023-11-01T13:48:42.193Z,10.14
2023-11-01T13:51:10.213Z,10.22
2023-11-01T13:53:38.417Z,10.14
2023-11-01T13:56:08.705Z,10.19
2023-11-01T13:58:38.619Z,10.24
2023-11-01T14:01:05.137Z,10.30
2023-11-01T14:03:33.877Z,10.45
2023-11-01T14:06:00.744Z,10.48
2023-11-01T14:08:27.212Z,10.56
2023-11-01T14:10:54.324Z,10.57
2023-11-01T14:13:20.621Z,10.59
2023-11-01T14:15:47.747Z,10.67
2023-11-01T14:18:20.269Z,10.64
2023-11-01T14:20:51.606Z,10.71
2023-11-01T14:23:19.260Z,10.77
2023-11-01T14:25:46.404Z,10.76
2023-11-01T14:28:14.401Z,10.78
2023-11-01T14:30:42.170Z,10.81
2023-11-01T14:33:09.804Z,10.77
2023-11-01T14:35:36.548Z,10.89
2023-11-01T14:38:03.907Z,10.81
2023-11-01T14:40:31.324Z,10.84
2023-11-01T14:42:58.875Z,10.94
2023-11-01T14:45:27.626Z,10.93
2023-11-01T14:47:55.645Z,10.91
2023-11-01T14:50:22.019Z,10.91
2023-11-01T14:52:48.410Z,10.90
2023-11-01T14:55:14.960Z,10.94
2023-11-01T14:57:41.297Z,10.98
2023-11-01T15:00:08.766Z,10.94
2023-11-01T15:02:36.566Z,10.89
2023-11-01T15:05:05.278Z,10.93
2023-11-01T15:07:31.998Z,10.89
2023-11-01T15:09:59.075Z,10.97
2023-11-01T15:12:26.771Z,10.91
2023-11-01T15:14:53.505Z,10.90
2023-11-01T15:17:20.015Z,10.89
2023-11-01T15:19:48.759Z,10.84
2023-11-01T15:22:16.155Z,10.78
2023-11-01T15:24:50.201Z,10.73
2023-11-01T15:27:17.914Z,10.69
2023-11-01T15:29:44.332Z,10.69
2023-11-01T15:32:11.209Z,10.67
2023-11-01T15:34:37.863Z,10.65
2023-11-01T15:37:05.089Z,10.60
2023-11-01T15:39:31.530Z,10.66
2023-11-01T15:41:58.036Z,10.65
2023-11-01T15:44:24.400Z,10.60
2023-11-01T15:46:51.665Z,10.64
2023-11-01T15:49:18.162Z,10.62
2023-11-01T15:51:44.567Z,10.65
2023-11-01T15:54:12.599Z,10.72
2023-11-01T15:56:39.990Z,10.65
2023-11-01T15:59:07.473Z,10.66
2023-11-01T16:01:34.196Z,10.65
2023-11-01T16:04:01.032Z,10.62
2023-11-01T16:06:27.638Z,10.58
2023-11-01T16:08:54.043Z,10.49
2023-11-01T16:11:20.445Z,10.47
2023-11-01T16:13:49.155Z,10.54
2023-11-01T16:16:16.914Z,10.54
2023-11-01T16:18:43.803Z,10.44
2023-11-01T16:21:10.912Z,10.43
2023-11-01T16:23:37.559Z,10.42
2023-11-01T16:26:04.377Z,10.42
2023-11-01T16:28:31.191Z,10.37
2023-11-01T16:30:58.253Z,10.36
2023-11-01T16:33:24.674Z,10.43
2023-11-01T16:35:51.398Z,10.40
2023-11-01T16:38:18.053Z,10.38
2023-11-01T16:40:45.033Z,10.37
2023-11-01T16:43:11.682Z,10.41
2023-11-01T16:45:38.369Z,10.43
2023-11-01T16:48:05.958Z,10.43
2023-11-01T16:50:32.491Z,10.42
2023-11-01T16:52:58.882Z,10.44
2023-11-01T16:55:25.497Z,10.48
2023-11-01T16:57:51.955Z,10.54
2023-11-01T17:00:18.759Z,10.51
2023-11-01T17:02:50.470Z,10.48
2023-11-01T17:05:17.698Z,10.47
2023-11-01T17:07:44.165Z,10.49
2023-11-01T17:10:10.628Z,10.53
2023-11-01T17:12:37.229Z,10.59
2023-11-01T17:15:05.432Z,10.55
2023-11-01T17:17:32.141Z,10.59
2023-11-01T17:19:58.899Z,10.57
2023-11-01T17:22:50.957Z,10.58
2023-11-01T17:25:35.944Z,10.57
2023-11-01T17:28:02.377Z,10.56
2023-11-01T17:30:29.443Z,10.56
2023-11-01T17:32:55.978Z,10.58
2023-11-01T17:35:22.382Z,10.61
2023-11-01T17:37:51.289Z,10.61
2023-11-01T17:40:18.533Z,10.63
2023-11-01T17:42:45.128Z,10.59
2023-11-01T17:45:13.846Z,10.58
2023-11-01T17:47:42.597Z,10.57
2023-11-01T17:50:11.283Z,10.61
2023-11-01T17:52:43.613Z,10.64
2023-11-01T17:55:15.010Z,10.58
2023-11-01T17:57:42.151Z,10.61
2023-11-01T18:00:10.105Z,10.57
2023-11-01T18:03:19.252Z,10.48
2023-11-01T18:05:48.584Z,10.55
2023-11-01T18:08:18.185Z,10.55
2023-11-01T18:10:48.908Z,10.63
2023-11-01T18:13:20.038Z,10.52
2023-11-01T18:15:47.825Z,10.51
2023-11-01T18:18:57.190Z,10.46
2023-11-01T18:21:28.725Z,10.42
2023-11-01T18:23:57.032Z,10.39
2023-11-01T18:26:24.437Z,10.34
2023-11-01T18:28:52.477Z,10.36
2023-11-01T18:31:20.689Z,10.39
2023-11-01T18:34:07.848Z,10.38
2023-11-01T18:36:38.240Z,10.41
2023-11-01T18:39:05.059Z,10.38
2023-11-01T18:41:36.702Z,10.37
2023-11-01T18:44:28.885Z,10.33
2023-11-01T18:46:57.566Z,10.34
2023-11-01T18:49:52.021Z,10.34
2023-11-01T18:52:19.520Z,10.35
2023-11-01T18:54:48.079Z,10.35
2023-11-01T18:57:33.616Z,10.39
2023-11-01T19:00:00.774Z,10.34
2023-11-01T19:02:27.177Z,10.33
2023-11-01T19:04:57.225Z,10.26
2023-11-01T19:07:24.359Z,10.29
2023-11-01T19:09:51.930Z,10.35
2023-11-01T19:12:27.925Z,10.34
2023-11-01T19:14:54.936Z,10.32
2023-11-01T19:17:24.625Z,10.40
2023-11-01T19:19:51.036Z,10.35
2023-11-01T19:22:17.816Z,10.30
2023-11-01T19:24:44.406Z,10.29
2023-11-01T19:27:18.295Z,10.32
2023-11-01T19:29:50.281Z,10.29
2023-11-01T19:32:16.710Z,10.27
2023-11-01T19:34:43.091Z,10.33
2023-11-01T19:37:10.093Z,10.27
2023-11-01T19:39:36.438Z,10.33
2023-11-01T19:42:03.066Z,10.28
2023-11-01T19:44:29.608Z,10.25
2023-11-01T19:46:56.238Z,10.22
2023-11-01T19:49:22.948Z,10.24
2023-11-01T19:51:51.936Z,10.21
2023-11-01T19:54:19.064Z,10.16
2023-11-01T19:56:45.761Z,10.18
2023-11-01T19:59:12.334Z,10.14
2023-11-01T20:01:38.884Z,10.15
2023-11-01T20:04:05.615Z,10.12
2023-11-01T20:06:32.003Z,10.12
2023-11-01T20:08:59.761Z,10.19
2023-11-01T20:11:26.305Z,10.21
2023-11-01T20:13:53.292Z,10.20
2023-11-01T20:16:25.621Z,10.24
2023-11-01T20:18:56.950Z,10.20
2023-11-01T20:21:23.602Z,10.23
2023-11-01T20:23:50.312Z,10.18
2023-11-01T20:26:16.704Z,10.12
2023-11-01T20:28:43.068Z,10.11
2023-11-01T20:31:10.833Z,10.14
2023-11-01T20:33:37.522Z,10.16
2023-11-01T20:36:04.372Z,10.16
2023-11-01T20:38:31.020Z,10.20
2023-11-01T20:40:57.372Z,10.19
2023-11-01T20:43:23.757Z,10.29
2023-11-01T20:45:50.089Z,10.26
2023-11-01T20:48:16.829Z,10.24
2023-11-01T20:50:48.189Z,10.21
2023-11-01T20:53:14.674Z,10.26
2023-11-01T20:55:41.067Z,10.26
2023-11-01T20:58:08.496Z,10.30
2023-11-01T21:00:35.065Z,10.31
2023-11-01T21:03:01.592Z,10.23
2023-11-01T21:05:28.130Z,10.18
2023-11-01T21:07:55.360Z,10.16
2023-11-01T21:10:22.553Z,10.16
2023-11-01T21:12:49.029Z,10.22
2023-11-01T21:15:15.549Z,10.19
2023-11-01T21:17:42.111Z,10.20
2023-11-01T21:20:10.775Z,10.16
2023-11-01T21:22:40.176Z,10.13
2023-11-01T21:25:07.126Z,10.21
2023-11-01T21:27:34.001Z,10.20
2023-11-01T21:30:01.604Z,10.21
2023-11-01T21:32:28.214Z,10.11
2023-11-01T21:34:54.650Z,10.11
2023-11-01T21:37:21.169Z,10.10
2023-11-01T21:39:47.691Z,10.08
2023-11-01T21:42:14.467Z,10.15
2023-11-01T21:44:41.576Z,10.10
2023-11-01T21:47:10.748Z,10.15
2023-11-01T21:49:37.237Z,10.15
2023-11-01T21:52:20.655Z,10.20
2023-11-01T21:54:48.471Z,10.17
2023-11-01T21:57:27.742Z,10.15
2023-11-01T22:00:01.511Z,10.05
2023-11-01T22:02:49.594Z,10.05
2023-11-01T22:05:18.123Z,10.02
2023-11-01T22:07:45.056Z,10.09
2023-11-01T22:10:16.602Z,10.11
2023-11-01T22:12:48.274Z,10.15
2023-11-01T22:15:24.449Z,10.17
2023-11-01T22:17:51.586Z,10.21
2023-11-01T22:20:23.618Z,10.23
2023-11-01T22:22:51.069Z,10.29
2023-11-01T22:25:35.686Z,10.29
2023-11-01T22:28:04.503Z,10.20
2023-11-01T22:30:33.849Z,10.18
2023-11-01T22:33:08.958Z,10.16
2023-11-01T22:35:41.857Z,10.13
2023-11-01T22:38:09.664Z,10.14
2023-11-01T22:40:36.228Z,10.13
2023-11-01T22:43:02.628Z,10.14
2023-11-01T22:45:29.218Z,10.12
2023-11-01T22:47:55.740Z,10.11
2023-11-01T22:50:22.213Z,10.10
2023-11-01T22:52:48.543Z,10.18
2023-11-01T22:55:15.016Z,10.16
2023-11-01T22:57:41.619Z,10.15
2023-11-01T23:00:11.763Z,10.18
2023-11-01T23:02:38.324Z,10.13
2023-11-01T23:05:05.132Z,10.07
2023-11-01T23:07:31.534Z,10.13
2023-11-01T23:09:58.554Z,10.19
2023-11-01T23:12:26.137Z,10.20
2023-11-01T23:14:52.635Z,10.18
2023-11-01T23:17:20.600Z,10.13
2023-11-01T23:19:48.302Z,10.14
2023-11-01T23:22:14.970Z,10.23
2023-11-01T23:24:42.589Z,10.16
2023-11-01T23:27:09.928Z,10.07
2023-11-01T23:29:40.123Z,10.06
2023-11-01T23:32:12.494Z,10.00
2023-11-01T23:34:46.141Z,10.11
2023-11-01T23:37:17.642Z,10.09
2023-11-01T23:39:45.077Z,10.03
2023-11-01T23:42:15.661Z,10.13
2023-11-01T23:44:42.230Z,10.10
2023-11-01T23:47:10.036Z,10.08
2023-11-01T23:49:58.503Z,9.99
2023-11-01T23:52:28.821Z,10.02
2023-11-01T23:54:56.488Z,10.00
2023-11-01T23:57:24.790Z,9.97
2023-11-01T23:59:58.181Z,10.00
